createdAt,value
2019-02-04T00:02:08.030Z,7.07
2019-02-04T00:04:38.299Z,9.47
2019-02-04T00:07:08.500Z,9.00
2019-02-04T00:09:39.053Z,7.77
2019-02-04T00:12:09.245Z,11.07
2019-02-04T00:14:40.121Z,9.63
2019-02-04T00:17:11.953Z,8.23
2019-02-04T00:19:42.747Z,9.03
2019-02-04T00:22:13.497Z,7.33
2019-02-04T00:24:44.580Z,7.50
2019-02-04T00:27:15.692Z,8.97
2019-02-04T00:29:45.894Z,7.73
2019-02-04T00:32:16.109Z,8.77
2019-02-04T00:34:46.713Z,13.80
2019-02-04T00:37:16.937Z,8.97
2019-02-04T00:39:47.154Z,8.37
2019-02-04T00:42:17.613Z,7.30
2019-02-04T00:44:47.851Z,8.53
2019-02-04T00:47:18.010Z,7.10
2019-02-04T00:49:48.451Z,8.87
2019-02-04T00:52:18.692Z,8.50
2019-02-04T00:54:49.376Z,8.33
2019-02-04T00:57:19.621Z,8.17
2019-02-04T00:59:50.020Z,8.13
2019-02-04T01:02:20.478Z,6.90
2019-02-04T01:04:51.227Z,6.67
2019-02-04T01:07:21.457Z,5.77
2019-02-04T01:09:51.681Z,9.20
2019-02-04T01:12:21.910Z,6.83
2019-02-04T01:14:52.392Z,6.03
2019-02-04T01:17:22.975Z,9.53
2019-02-04T01:19:53.207Z,8.43
2019-02-04T01:22:23.765Z,8.37
2019-02-04T01:24:56.401Z,7.73
2019-02-04T01:27:27.447Z,7.55
2019-02-04T01:29:57.686Z,7.50
2019-02-04T01:32:27.959Z,9.10
2019-02-04T01:34:58.252Z,6.20
2019-02-04T01:37:28.443Z,7.90
2019-02-04T01:39:58.637Z,4.60
2019-02-04T01:42:29.224Z,5.50
2019-02-04T01:44:59.446Z,5.83
2019-02-04T01:47:29.583Z,7.03
2019-02-04T01:50:00.190Z,5.80
2019-02-04T01:52:30.333Z,6.10
2019-02-04T01:55:00.723Z,7.33
2019-02-04T01:57:31.287Z,5.77
2019-02-04T02:00:01.473Z,5.97
2019-02-04T02:02:32.001Z,5.67
2019-02-04T02:05:02.213Z,6.33
2019-02-04T02:07:32.744Z,6.47
2019-02-04T02:10:02.969Z,5.93
2019-02-04T02:12:33.144Z,6.93
2019-02-04T02:15:03.392Z,7.00
2019-02-04T02:17:33.935Z,6.17
2019-02-04T02:20:06.836Z,5.17
2019-02-04T02:22:37.200Z,7.70
2019-02-04T02:25:08.205Z,7.70
2019-02-04T02:27:38.417Z,6.73
2019-02-04T02:30:11.661Z,6.67
2019-02-04T02:32:42.469Z,6.70
2019-02-04T02:35:13.158Z,6.33
2019-02-04T02:37:43.410Z,6.30
2019-02-04T02:40:17.183Z,8.90
2019-02-04T02:42:47.422Z,6.03
2019-02-04T02:45:18.447Z,6.17
2019-02-04T02:47:48.724Z,4.60
2019-02-04T02:50:18.999Z,7.43
2019-02-04T02:52:49.192Z,6.57
2019-02-04T02:55:19.584Z,4.93
2019-02-04T02:57:49.897Z,6.47
2019-02-04T03:00:24.582Z,6.93
2019-02-04T03:02:54.825Z,6.93
2019-02-04T03:05:26.868Z,9.73
2019-02-04T03:07:57.470Z,5.53
2019-02-04T03:10:30.057Z,7.23
2019-02-04T03:13:01.632Z,7.00
2019-02-04T03:15:31.912Z,7.17
2019-02-04T03:18:03.072Z,7.17
2019-02-04T03:20:33.501Z,7.10
2019-02-04T03:23:03.783Z,6.60
2019-02-04T03:25:34.280Z,7.67
2019-02-04T03:28:05.234Z,8.17
2019-02-04T03:30:36.031Z,6.17
2019-02-04T03:33:06.241Z,5.77
2019-02-04T03:35:36.887Z,8.10
2019-02-04T03:38:07.285Z,7.90
2019-02-04T03:40:37.900Z,7.30
2019-02-04T03:43:08.154Z,6.47
2019-02-04T03:45:38.647Z,6.53
2019-02-04T03:48:09.471Z,6.87
2019-02-04T03:50:39.867Z,7.30
2019-02-04T03:53:10.079Z,5.10
2019-02-04T03:55:40.282Z,7.03
2019-02-04T03:58:10.764Z,6.73
2019-02-04T04:00:41.660Z,6.60
2019-02-04T04:03:12.724Z,6.33
2019-02-04T04:05:43.710Z,5.90
2019-02-04T04:08:14.761Z,5.50
2019-02-04T04:10:45.225Z,6.83
2019-02-04T04:13:15.690Z,6.27
2019-02-04T04:15:46.536Z,7.23
2019-02-04T04:18:17.330Z,6.77
2019-02-04T04:20:48.078Z,7.37
2019-02-04T04:23:19.029Z,6.53
2019-02-04T04:25:49.773Z,7.03
2019-02-04T04:28:21.628Z,6.90
2019-02-04T04:30:52.670Z,6.93
2019-02-04T04:33:22.930Z,7.17
2019-02-04T04:35:53.538Z,5.00
2019-02-04T04:38:25.103Z,6.80
2019-02-04T04:40:56.555Z,7.10
2019-02-04T04:43:27.053Z,6.20
2019-02-04T04:45:57.935Z,4.37
2019-02-04T04:48:29.028Z,5.60
2019-02-04T04:50:59.997Z,6.73
2019-02-04T04:53:30.718Z,5.83
2019-02-04T04:56:01.577Z,6.53
2019-02-04T04:58:32.129Z,5.63
2019-02-04T05:01:02.991Z,7.50
2019-02-04T05:03:34.051Z,5.70
2019-02-04T05:06:04.951Z,6.00
2019-02-04T05:08:35.519Z,6.57
2019-02-04T05:11:06.385Z,6.80
2019-02-04T05:13:37.061Z,5.80
2019-02-04T05:16:07.533Z,4.77
2019-02-04T05:18:38.599Z,6.53
2019-02-04T05:21:09.217Z,7.23
2019-02-04T05:23:40.084Z,5.27
2019-02-04T05:26:10.923Z,5.90
2019-02-04T05:28:41.497Z,5.70
2019-02-04T05:33:46.403Z,7.00
2019-02-04T05:36:19.291Z,7.50
2019-02-04T05:38:51.680Z,6.07
2019-02-04T05:41:23.659Z,6.10
2019-02-04T05:43:56.120Z,7.43
2019-02-04T05:46:28.121Z,7.40
2019-02-04T05:49:00.242Z,8.37
2019-02-04T05:51:32.451Z,7.03
2019-02-04T05:54:04.918Z,6.93
2019-02-04T05:56:37.571Z,6.00
2019-02-04T05:59:09.557Z,5.10
2019-02-04T06:01:41.513Z,6.03
2019-02-04T06:04:15.199Z,6.03
2019-02-04T06:06:47.151Z,6.43
2019-02-04T06:09:19.203Z,8.33
2019-02-04T06:11:51.142Z,7.27
2019-02-04T06:14:23.473Z,6.17
2019-02-04T06:16:55.519Z,7.50
2019-02-04T06:19:27.880Z,9.13
2019-02-04T06:22:00.228Z,5.73
2019-02-04T06:24:33.180Z,5.67
2019-02-04T06:27:05.129Z,6.60
2019-02-04T06:29:37.097Z,8.90
2019-02-04T06:32:09.778Z,8.60
2019-02-04T06:34:41.736Z,6.77
2019-02-04T06:37:13.721Z,8.80
2019-02-04T06:39:45.674Z,8.03
2019-02-04T06:42:18.044Z,8.50
2019-02-04T06:44:50.320Z,6.13
2019-02-04T06:47:22.638Z,6.63
2019-02-04T06:49:54.934Z,7.33
2019-02-04T06:52:27.236Z,6.27
2019-02-04T06:54:59.850Z,6.33
2019-02-04T06:57:31.871Z,6.40
2019-02-04T07:00:04.852Z,7.80
2019-02-04T07:02:36.907Z,6.13
2019-02-04T07:05:09.386Z,8.00
2019-02-04T07:07:41.637Z,7.83
2019-02-04T07:10:16.556Z,6.43
2019-02-04T07:12:48.541Z,6.77
2019-02-04T07:15:20.893Z,6.70
2019-02-04T07:18:01.438Z,6.23
2019-02-04T07:20:29.535Z,6.47
2019-02-04T07:23:00.027Z,7.00
2019-02-04T07:25:30.705Z,5.57
2019-02-04T07:28:00.928Z,6.07
2019-02-04T07:30:31.153Z,7.27
2019-02-04T07:33:01.388Z,6.47
2019-02-04T07:35:31.919Z,6.27
2019-02-04T07:38:02.501Z,7.53
2019-02-04T07:40:33.245Z,7.40
2019-02-04T07:43:03.521Z,6.13
2019-02-04T07:45:34.167Z,7.60
2019-02-04T07:48:04.785Z,9.17
2019-02-04T07:50:35.427Z,8.07
2019-02-04T07:53:05.973Z,7.33
2019-02-04T07:55:36.581Z,8.33
2019-02-04T07:58:07.473Z,8.37
2019-02-04T08:00:38.216Z,8.23
2019-02-04T08:03:08.793Z,5.57
2019-02-04T08:05:39.503Z,7.93
2019-02-04T08:08:10.164Z,6.53
2019-02-04T08:10:40.738Z,7.90
2019-02-04T08:13:10.978Z,8.73
2019-02-04T08:15:41.663Z,8.20
2019-02-04T08:18:12.149Z,7.10
2019-02-04T08:20:42.390Z,8.43
2019-02-04T08:23:13.150Z,8.33
2019-02-04T08:25:44.140Z,7.07
2019-02-04T08:28:15.247Z,9.20
2019-02-04T08:30:46.067Z,7.10
2019-02-04T08:33:16.304Z,6.77
2019-02-04T08:35:47.245Z,6.03
2019-02-04T08:38:17.945Z,8.50
2019-02-04T08:40:48.505Z,8.37
2019-02-04T08:43:19.072Z,10.73
2019-02-04T08:45:49.299Z,9.47
2019-02-04T08:48:19.560Z,9.33
2019-02-04T08:50:49.861Z,8.40
2019-02-04T08:53:20.379Z,7.60
2019-02-04T08:55:50.632Z,5.53
2019-02-04T08:58:20.914Z,7.60
2019-02-04T09:00:51.142Z,6.50
2019-02-04T09:03:21.785Z,7.80
2019-02-04T09:05:51.988Z,8.27
2019-02-04T09:08:22.234Z,8.93
2019-02-04T09:10:52.567Z,7.87
2019-02-04T09:13:22.943Z,6.00
2019-02-04T09:15:53.154Z,8.97
2019-02-04T09:18:23.697Z,8.07
2019-02-04T09:20:53.880Z,5.90
2019-02-04T09:23:24.137Z,8.43
2019-02-04T09:25:54.324Z,7.07
2019-02-04T09:28:24.857Z,6.63
2019-02-04T09:30:55.091Z,6.83
2019-02-04T09:33:25.414Z,7.37
2019-02-04T09:35:56.337Z,7.07
2019-02-04T09:38:26.567Z,6.80
2019-02-04T09:40:56.810Z,7.47
2019-02-04T09:43:27.053Z,9.77
2019-02-04T09:45:57.313Z,7.20
2019-02-04T09:48:27.569Z,8.43
2019-02-04T09:50:59.922Z,8.20
2019-02-04T09:53:30.561Z,7.07
2019-02-04T09:56:01.416Z,7.53
2019-02-04T09:58:31.641Z,8.77
2019-02-04T10:01:04.266Z,7.00
2019-02-04T10:03:34.326Z,6.00
2019-02-04T10:06:04.564Z,7.40
2019-02-04T10:08:35.105Z,7.80
2019-02-04T10:11:06.509Z,8.50
2019-02-04T10:13:37.147Z,9.27
2019-02-04T10:16:07.613Z,8.17
2019-02-04T10:18:38.055Z,7.57
2019-02-04T10:21:08.957Z,8.07
2019-02-04T10:23:39.445Z,8.27
2019-02-04T10:26:09.680Z,9.47
2019-02-04T10:28:40.321Z,7.47
2019-02-04T10:31:11.074Z,9.10
2019-02-04T10:33:41.867Z,7.77
2019-02-04T10:36:12.122Z,8.13
2019-02-04T10:38:42.922Z,8.73
2019-02-04T10:41:13.133Z,9.93
2019-02-04T10:43:43.451Z,12.00
2019-02-04T10:46:13.715Z,12.67
2019-02-04T10:48:43.993Z,9.90
2019-02-04T10:51:14.249Z,12.93
2019-02-04T10:53:44.559Z,15.50
2019-02-04T10:56:16.368Z,12.53
2019-02-04T10:58:50.028Z,11.07
2019-02-04T11:01:21.144Z,9.40
2019-02-04T11:03:51.365Z,12.07
2019-02-04T11:06:21.730Z,12.20
2019-02-04T11:08:52.671Z,13.07
2019-02-04T11:11:22.921Z,10.90
2019-02-04T11:13:53.862Z,15.20
2019-02-04T11:16:25.137Z,13.50
2019-02-04T11:18:55.974Z,12.63
2019-02-04T11:21:26.529Z,11.63
2019-02-04T11:23:56.947Z,10.87
2019-02-04T11:26:27.274Z,12.93
2019-02-04T11:28:57.581Z,12.83
2019-02-04T11:31:27.813Z,14.67
2019-02-04T11:33:58.125Z,12.97
2019-02-04T11:36:28.492Z,12.10
2019-02-04T11:38:58.785Z,12.83
2019-02-04T11:41:29.164Z,13.27
2019-02-04T11:43:59.639Z,11.83
2019-02-04T11:46:31.305Z,15.57
2019-02-04T11:49:01.614Z,14.67
2019-02-04T11:51:31.856Z,13.83
2019-02-04T11:54:02.104Z,13.00
2019-02-04T11:56:32.347Z,13.33
2019-02-04T11:59:02.998Z,11.97
2019-02-04T12:01:33.558Z,13.10
2019-02-04T12:04:04.696Z,13.93
2019-02-04T12:06:34.910Z,15.63
2019-02-04T12:09:08.756Z,14.20
2019-02-04T12:11:39.138Z,14.67
2019-02-04T12:14:09.988Z,16.27
2019-02-04T12:16:40.821Z,13.87
2019-02-04T12:19:11.542Z,15.83
2019-02-04T12:21:41.845Z,15.37
2019-02-04T12:24:12.100Z,15.70
2019-02-04T12:26:42.818Z,14.43
2019-02-04T12:29:13.079Z,15.70
2019-02-04T12:31:43.648Z,17.20
2019-02-04T12:34:13.945Z,14.63
2019-02-04T12:36:44.258Z,16.77
2019-02-04T12:39:19.860Z,15.37
2019-02-04T12:41:50.692Z,17.07
2019-02-04T12:44:21.485Z,14.63
2019-02-04T12:46:51.845Z,14.97
2019-02-04T12:49:22.503Z,15.17
2019-02-04T12:51:52.768Z,14.90
2019-02-04T12:54:23.319Z,15.40
2019-02-04T12:56:53.541Z,14.57
2019-02-04T12:59:23.770Z,15.13
2019-02-04T13:01:54.270Z,13.80
2019-02-04T13:04:25.248Z,15.70
2019-02-04T13:06:55.917Z,13.40
2019-02-04T13:09:26.550Z,15.30
2019-02-04T13:11:56.798Z,14.13
2019-02-04T13:14:27.034Z,14.87
2019-02-04T13:16:57.259Z,17.87
2019-02-04T13:19:27.960Z,13.87
2019-02-04T13:21:58.538Z,12.97
2019-02-04T13:24:28.818Z,14.03
2019-02-04T13:26:58.961Z,16.07
2019-02-04T13:29:29.212Z,13.40
2019-02-04T13:31:59.500Z,14.87
2019-02-04T13:34:30.157Z,12.53
2019-02-04T13:37:00.696Z,14.73
2019-02-04T13:39:30.968Z,14.00
2019-02-04T13:42:01.397Z,13.77
2019-02-04T13:44:31.580Z,11.70
2019-02-04T13:47:01.913Z,13.07
2019-02-04T13:49:32.531Z,13.03
2019-02-04T13:52:03.092Z,12.53
2019-02-04T13:54:33.428Z,14.07
2019-02-04T13:57:04.387Z,12.53
2019-02-04T13:59:36.654Z,13.73
2019-02-04T14:02:07.518Z,12.57
2019-02-04T14:04:37.751Z,14.97
2019-02-04T14:07:07.993Z,15.50
2019-02-04T14:09:38.195Z,12.33
2019-02-04T14:12:08.807Z,14.90
2019-02-04T14:14:39.017Z,13.23
2019-02-04T14:17:09.411Z,15.37
2019-02-04T14:19:39.618Z,15.97
2019-02-04T14:22:09.878Z,13.70
2019-02-04T14:24:40.615Z,13.50
2019-02-04T14:27:11.060Z,15.57
2019-02-04T14:29:41.334Z,18.70
2019-02-04T14:32:11.835Z,12.87
2019-02-04T14:34:42.641Z,12.17
2019-02-04T14:37:12.951Z,14.40
2019-02-04T14:39:44.592Z,12.70
2019-02-04T14:42:17.700Z,14.57
2019-02-04T14:45:10.484Z,13.00
2019-02-04T14:48:02.952Z,14.40
2019-02-04T14:51:08.946Z,15.13
2019-02-04T14:54:01.729Z,13.07
2019-02-04T14:56:54.721Z,14.97
2019-02-04T14:59:35.590Z,12.57
2019-02-04T15:02:42.268Z,13.33
2019-02-04T15:05:50.693Z,13.87
2019-02-04T15:08:54.040Z,13.70
2019-02-04T15:12:26.791Z,13.13
2019-02-04T15:15:34.100Z,12.13
2019-02-04T15:18:34.202Z,14.97
2019-02-04T15:21:47.913Z,15.13
2019-02-04T15:24:55.330Z,13.77
2019-02-04T15:27:56.871Z,13.13
2019-02-04T15:30:57.072Z,14.70
2019-02-04T15:33:49.816Z,14.13
2019-02-04T15:36:51.365Z,12.67
2019-02-04T15:40:17.957Z,13.53
2019-02-04T15:43:47.464Z,13.87
2019-02-04T15:46:43.050Z,13.30
2019-02-04T15:49:50.887Z,15.00
2019-02-04T15:52:22.514Z,15.27
2019-02-04T15:54:53.026Z,15.43
2019-02-04T15:57:24.752Z,16.27
2019-02-04T15:59:55.314Z,13.80
2019-02-04T16:02:26.312Z,14.77
2019-02-04T16:04:56.580Z,15.33
2019-02-04T16:07:27.038Z,14.97
2019-02-04T16:09:57.663Z,13.87
2019-02-04T16:12:27.818Z,15.60
2019-02-04T16:14:58.442Z,15.40
2019-02-04T16:17:28.723Z,14.40
2019-02-04T16:19:59.287Z,13.90
2019-02-04T16:22:29.607Z,13.10
2019-02-04T16:24:59.842Z,14.40
2019-02-04T16:27:30.112Z,16.80
2019-02-04T16:30:00.545Z,13.70
2019-02-04T16:32:30.797Z,14.60
2019-02-04T16:35:01.139Z,15.60
2019-02-04T16:37:31.706Z,13.77
2019-02-04T16:40:02.279Z,13.60
2019-02-04T16:42:32.515Z,13.90
2019-02-04T16:45:03.125Z,14.73
2019-02-04T16:47:33.469Z,14.90
2019-02-04T16:50:04.325Z,15.47
2019-02-04T16:52:34.815Z,13.70
2019-02-04T16:55:05.706Z,13.43
2019-02-04T16:57:35.951Z,14.27
2019-02-04T17:00:08.079Z,14.57
2019-02-04T17:02:38.313Z,15.07
2019-02-04T17:05:10.789Z,16.83
2019-02-04T17:07:41.030Z,15.90
2019-02-04T17:10:16.423Z,16.03
2019-02-04T17:12:46.905Z,14.77
2019-02-04T17:15:17.366Z,14.40
2019-02-04T17:17:48.176Z,15.83
2019-02-04T17:20:21.120Z,15.63
2019-02-04T17:22:51.615Z,15.00
2019-02-04T17:25:21.902Z,16.57
2019-02-04T17:27:52.161Z,14.73
2019-02-04T17:30:23.864Z,17.73
2019-02-04T17:32:54.446Z,16.20
2019-02-04T17:35:24.831Z,15.33
2019-02-04T17:37:55.100Z,14.37
2019-02-04T17:40:26.575Z,15.70
2019-02-04T17:42:59.570Z,15.17
2019-02-04T17:45:29.841Z,14.73
2019-02-04T17:48:00.247Z,15.13
2019-02-04T17:50:30.448Z,15.20
2019-02-04T17:53:00.702Z,15.60
2019-02-04T17:55:31.010Z,15.40
2019-02-04T17:58:02.690Z,17.93
2019-02-04T18:00:39.277Z,15.28
2019-02-04T18:03:09.584Z,15.40
2019-02-04T18:05:39.836Z,16.27
2019-02-04T18:08:10.601Z,16.27
2019-02-04T18:10:40.828Z,16.00
2019-02-04T18:13:11.327Z,16.87
2019-02-04T18:15:41.699Z,16.37
2019-02-04T18:18:12.060Z,17.63
2019-02-04T18:20:42.654Z,16.87
2019-02-04T18:23:12.917Z,18.03
2019-02-04T18:25:43.152Z,15.20
2019-02-04T18:28:13.617Z,16.70
2019-02-04T18:30:44.264Z,17.00
2019-02-04T18:33:14.566Z,17.27
2019-02-04T18:35:45.130Z,20.00
2019-02-04T18:38:15.351Z,15.83
2019-02-04T18:40:45.977Z,16.97
2019-02-04T18:43:16.204Z,16.60
2019-02-04T18:45:46.419Z,16.87
2019-02-04T18:48:16.600Z,16.03
2019-02-04T18:50:47.686Z,17.37
2019-02-04T18:53:18.778Z,17.40
2019-02-04T18:55:49.032Z,16.77
2019-02-04T18:58:19.183Z,16.33
2019-02-04T19:00:49.620Z,17.40
2019-02-04T19:03:19.938Z,17.03
2019-02-04T19:05:50.432Z,16.40
2019-02-04T19:08:20.703Z,17.97
2019-02-04T19:10:51.217Z,18.23
2019-02-04T19:13:21.451Z,16.80
2019-02-04T19:15:52.042Z,19.13
2019-02-04T19:18:23.167Z,17.90
2019-02-04T19:20:53.770Z,20.27
2019-02-04T19:23:26.856Z,20.20
2019-02-04T19:25:56.146Z,19.10
2019-02-04T19:28:26.370Z,22.13
2019-02-04T19:31:14.859Z,21.60
2019-02-04T19:33:45.068Z,23.50
2019-02-04T19:36:18.354Z,21.70
2019-02-04T19:38:47.793Z,20.47
2019-02-04T19:41:18.060Z,21.03
2019-02-04T19:43:48.288Z,20.73
2019-02-04T19:46:18.558Z,19.70
2019-02-04T19:48:48.811Z,20.47
2019-02-04T19:51:19.343Z,20.50
2019-02-04T19:53:49.571Z,21.10
2019-02-04T19:56:19.774Z,20.60
2019-02-04T19:58:49.998Z,20.00
2019-02-04T20:01:20.228Z,20.90
2019-02-04T20:03:50.502Z,21.00
2019-02-04T20:06:20.877Z,21.30
2019-02-04T20:08:51.506Z,20.30
2019-02-04T20:11:22.030Z,19.50
2019-02-04T20:13:52.241Z,19.93
2019-02-04T20:16:22.497Z,18.57
2019-02-04T20:18:53.222Z,20.63
2019-02-04T20:21:24.081Z,20.33
2019-02-04T20:23:54.716Z,23.23
2019-02-04T20:26:25.214Z,22.13
2019-02-04T20:28:55.463Z,21.33
2019-02-04T20:31:25.752Z,22.43
2019-02-04T20:33:55.975Z,21.97
2019-02-04T20:36:26.603Z,20.73
2019-02-04T20:38:56.879Z,21.13
2019-02-04T20:41:27.060Z,20.33
2019-02-04T20:43:57.282Z,21.50
2019-02-04T20:46:27.489Z,19.77
2019-02-04T20:48:57.727Z,19.73
2019-02-04T20:51:28.315Z,20.17
2019-02-04T20:53:58.567Z,20.13
2019-02-04T20:56:29.075Z,22.43
2019-02-04T20:58:59.327Z,23.40
2019-02-04T21:01:29.706Z,21.73
2019-02-04T21:03:59.909Z,20.87
2019-02-04T21:06:30.110Z,20.60
2019-02-04T21:09:00.339Z,23.47
2019-02-04T21:11:30.572Z,21.87
2019-02-04T21:14:02.948Z,22.33
2019-02-04T21:16:33.186Z,22.40
2019-02-04T21:19:03.421Z,23.77
2019-02-04T21:21:33.618Z,23.73
2019-02-04T21:24:04.087Z,22.53
2019-02-04T21:26:35.167Z,23.87
2019-02-04T21:29:05.526Z,23.00
2019-02-04T21:31:35.717Z,21.93
2019-02-04T21:34:06.478Z,22.47
2019-02-04T21:36:36.982Z,22.67
2019-02-04T21:39:08.418Z,21.00
2019-02-04T21:41:39.022Z,23.30
2019-02-04T21:44:09.241Z,20.23
2019-02-04T21:46:40.036Z,21.03
2019-02-04T21:49:10.220Z,21.13
2019-02-04T21:51:40.529Z,21.37
2019-02-04T21:54:10.732Z,20.57
2019-02-04T21:56:41.322Z,19.33
2019-02-04T21:59:12.214Z,20.27
2019-02-04T22:01:42.494Z,20.10
2019-02-04T22:04:12.729Z,21.13
2019-02-04T22:06:43.486Z,18.90
2019-02-04T22:09:13.929Z,18.30
2019-02-04T22:11:44.532Z,22.03
2019-02-04T22:14:15.148Z,23.70
2019-02-04T22:16:47.419Z,23.50
2019-02-04T22:19:18.325Z,22.80
2019-02-04T22:21:48.572Z,22.23
2019-02-04T22:24:18.930Z,23.83
2019-02-04T22:26:49.186Z,23.93
2019-02-04T22:29:19.814Z,21.77
2019-02-04T22:31:50.106Z,22.70
2019-02-04T22:34:20.990Z,23.30
2019-02-04T22:36:51.650Z,22.93
2019-02-04T22:39:21.883Z,22.57
2019-02-04T22:41:52.529Z,23.00
2019-02-04T22:44:22.720Z,22.07
2019-02-04T22:46:52.938Z,21.90
2019-02-04T22:49:23.186Z,22.37
2019-02-04T22:51:53.707Z,22.53
2019-02-04T22:54:23.985Z,23.90
2019-02-04T22:56:54.123Z,20.20
2019-02-04T22:59:24.336Z,22.80
2019-02-04T23:01:57.068Z,24.60
2019-02-04T23:04:29.577Z,23.20
2019-02-04T23:06:59.851Z,23.80
2019-02-04T23:09:30.099Z,21.67
2019-02-04T23:12:00.658Z,23.77
2019-02-04T23:14:30.928Z,20.83
2019-02-04T23:17:02.029Z,22.23
2019-02-04T23:19:32.241Z,22.43
2019-02-04T23:22:02.751Z,24.97
2019-02-04T23:24:32.973Z,23.33
2019-02-04T23:27:03.513Z,24.83
2019-02-04T23:29:33.740Z,19.70
2019-02-04T23:32:04.744Z,22.90
2019-02-04T23:34:34.916Z,22.47
2019-02-04T23:37:05.448Z,22.57
2019-02-04T23:39:35.614Z,26.80
2019-02-04T23:42:05.838Z,23.70
2019-02-04T23:44:36.787Z,25.60
2019-02-04T23:47:07.770Z,23.57
2019-02-04T23:49:38.406Z,21.50
2019-02-04T23:52:09.006Z,21.90
2019-02-04T23:54:39.210Z,20.43
2019-02-04T23:57:10.145Z,21.90
2019-02-04T23:59:41.042Z,22.93
